Time;durP1;ratioP1;P1;durP2;ratioP2;P2;SDS_P1;SDS_P2;PMS_P1;PMS_P2;Temp;Humidity;BMP_temperature;BMP_pressure;BME280_temperature;BME280_humidity;BME280_pressure;Samples;Min_cycle;Max_cycle;Signal;HPM_P1;HPM_P2
2023/10/09 00:01:13;;;;;;;7.93;3.40;;;10.70;99.90;;;;;;5096590;28;20505;-46
2023/10/09 00:03:41;;;;;;;7.53;4.30;;;10.70;99.90;;;;;;5096389;28;20391;-46
2023/10/09 00:06:07;;;;;;;6.83;4.10;;;10.60;99.90;;;;;;5096454;28;20410;-46
2023/10/09 00:08:34;;;;;;;8.57;3.57;;;10.70;99.90;;;;;;5096592;28;20427;-47
2023/10/09 00:11:17;;;;;;;9.43;4.43;;;10.70;99.90;;;;;;5096706;28;20504;-46
2023/10/09 00:13:49;;;;;;;7.90;3.77;;;10.60;99.90;;;;;;5096436;28;20414;-46
2023/10/09 00:16:32;;;;;;;13.40;4.93;;;10.60;99.90;;;;;;5096692;28;20422;-46
2023/10/09 00:19:17;;;;;;;10.20;3.80;;;10.60;99.90;;;;;;5096272;28;20960;-46
2023/10/09 00:21:49;;;;;;;10.97;3.83;;;10.60;99.90;;;;;;5096589;28;20421;-46
2023/10/09 00:24:24;;;;;;;8.87;3.70;;;10.60;99.90;;;;;;5095976;28;20472;-46
2023/10/09 00:26:51;;;;;;;5.43;3.60;;;10.60;99.90;;;;;;5096123;28;20426;-46
2023/10/09 00:29:21;;;;;;;8.30;3.70;;;10.60;99.90;;;;;;5096003;28;20422;-46
2023/10/09 00:32:15;;;;;;;6.00;3.80;;;10.70;99.90;;;;;;5096243;28;20548;-46
2023/10/09 00:34:41;;;;;;;16.40;3.80;;;10.70;99.90;;;;;;5095947;28;20428;-46
2023/10/09 00:37:22;;;;;;;6.40;3.27;;;10.60;99.90;;;;;;5095953;28;20418;-46
2023/10/09 00:39:48;;;;;;;6.57;3.30;;;10.60;99.90;;;;;;5095986;28;20416;-46
2023/10/09 00:42:25;;;;;;;4.30;3.20;;;10.60;99.90;;;;;;5095653;28;20432;-46
2023/10/09 00:44:51;;;;;;;6.10;3.67;;;10.60;99.90;;;;;;5096314;28;20491;-46
2023/10/09 00:47:20;;;;;;;5.30;3.07;;;10.50;99.90;;;;;;5095662;28;20978;-47
2023/10/09 00:50:01;;;;;;;10.37;3.87;;;10.60;99.90;;;;;;5095865;28;20195;-46
2023/10/09 00:52:36;;;;;;;8.37;3.40;;;10.60;99.90;;;;;;5095797;28;20477;-47
2023/10/09 00:55:13;;;;;;;7.50;3.40;;;10.50;99.90;;;;;;5095327;28;20407;-47
2023/10/09 00:57:59;;;;;;;7.50;3.17;;;10.50;99.90;;;;;;5095582;28;20406;-46
2023/10/09 01:00:32;;;;;;;9.13;4.50;;;10.50;99.90;;;;;;5095378;28;20405;-46
2023/10/09 01:08:30;;;;;;;8.90;3.30;;;10.50;99.90;;;;;;5095400;28;20454;-46
2023/10/09 01:11:09;;;;;;;6.80;3.40;;;10.40;99.90;;;;;;5095132;28;20474;-46
2023/10/09 01:16:17;;;;;;;6.83;3.60;;;10.40;99.90;;;;;;5095331;28;20436;-47
2023/10/09 01:18:51;;;;;;;5.60;3.50;;;10.40;99.90;;;;;;5093506;28;20450;-47
2023/10/09 01:21:24;;;;;;;7.50;3.30;;;10.40;99.90;;;;;;5094275;28;20437;-47
2023/10/09 01:24:03;;;;;;;9.83;3.57;;;10.40;99.90;;;;;;5094528;28;20417;-47
2023/10/09 01:26:39;;;;;;;4.73;3.13;;;10.40;99.90;;;;;;5094614;28;20410;-47
2023/10/09 01:29:14;;;;;;;6.10;3.50;;;10.40;99.90;;;;;;5094975;28;20452;-47
2023/10/09 01:32:06;;;;;;;7.30;3.67;;;10.40;99.90;;;;;;5095040;28;20451;-47
2023/10/09 01:34:44;;;;;;;11.00;4.20;;;10.40;99.90;;;;;;5094137;28;20436;-47
2023/10/09 01:39:57;;;;;;;6.40;3.73;;;10.40;99.90;;;;;;5094918;28;20451;-47
2023/10/09 01:42:45;;;;;;;5.80;3.40;;;10.40;99.90;;;;;;5095193;28;20474;-48
2023/10/09 01:45:10;;;;;;;7.60;4.70;;;10.40;99.90;;;;;;5094144;28;20449;-46
2023/10/09 01:47:37;;;;;;;5.40;3.43;;;10.40;99.90;;;;;;5094568;28;20417;-46
2023/10/09 01:50:05;;;;;;;6.40;3.40;;;10.40;99.90;;;;;;5094329;28;20779;-46
2023/10/09 01:52:30;;;;;;;12.90;5.13;;;10.40;99.90;;;;;;5094704;28;20522;-46
2023/10/09 01:55:02;;;;;;;5.90;3.70;;;10.40;99.90;;;;;;5094599;28;20418;-47
2023/10/09 01:57:30;;;;;;;7.20;3.40;;;10.40;99.90;;;;;;5094348;28;20178;-46
2023/10/09 01:59:59;;;;;;;5.50;2.90;;;10.30;99.90;;;;;;5094358;28;20418;-47
2023/10/09 02:02:33;;;;;;;8.40;3.13;;;10.30;99.90;;;;;;5094307;28;20430;-46
2023/10/09 02:07:44;;;;;;;4.07;3.10;;;10.30;99.90;;;;;;5094417;28;20416;-49
2023/10/09 02:10:24;;;;;;;4.57;2.63;;;10.20;99.90;;;;;;5093995;28;20418;-46
2023/10/09 02:12:57;;;;;;;4.73;2.53;;;10.20;99.90;;;;;;5094326;28;20478;-47
2023/10/09 02:26:06;;;;;;;2.90;2.43;;;10.00;99.90;;;;;;5093969;28;20472;-49
2023/10/09 02:28:33;;;;;;;5.63;3.20;;;10.00;99.90;;;;;;5093983;28;20462;-47
2023/10/09 02:31:01;;;;;;;4.37;3.20;;;10.00;99.90;;;;;;5093677;28;20438;-46
2023/10/09 02:33:28;;;;;;;7.20;3.07;;;10.00;99.90;;;;;;5093758;28;20434;-46
2023/10/09 02:35:59;;;;;;;3.70;2.70;;;10.00;99.90;;;;;;5093850;28;20422;-47
2023/10/09 02:38:26;;;;;;;5.70;2.63;;;10.00;99.90;;;;;;5093709;28;20414;-47
2023/10/09 02:43:50;;;;;;;7.43;3.70;;;10.00;99.90;;;;;;5093777;28;20475;-47
2023/10/09 02:46:18;;;;;;;5.33;3.03;;;10.00;99.90;;;;;;5093979;28;20472;-46
2023/10/09 02:48:50;;;;;;;7.73;3.00;;;10.00;99.90;;;;;;5093854;28;20486;-46
2023/10/09 02:53:52;;;;;;;6.57;3.20;;;10.00;99.90;;;;;;5093988;28;20408;-47
2023/10/09 02:56:23;;;;;;;5.13;3.43;;;10.00;99.90;;;;;;5093722;28;20410;-46
2023/10/09 02:58:53;;;;;;;5.17;3.63;;;9.90;99.90;;;;;;5093445;28;20415;-47
2023/10/09 03:01:19;;;;;;;5.77;3.80;;;10.00;99.90;;;;;;5093547;28;20432;-46
2023/10/09 03:03:48;;;;;;;8.70;3.10;;;10.00;99.90;;;;;;5093672;28;20422;-46
2023/10/09 03:06:24;;;;;;;6.60;3.37;;;10.00;99.90;;;;;;5093594;28;20199;-46
2023/10/09 03:08:50;;;;;;;6.80;3.07;;;10.00;99.90;;;;;;5093557;28;20897;-46
2023/10/09 03:11:16;;;;;;;6.03;3.03;;;9.90;99.90;;;;;;5093472;28;20409;-47
2023/10/09 03:13:45;;;;;;;5.53;3.43;;;9.90;99.90;;;;;;5093053;28;20283;-47
2023/10/09 03:16:14;;;;;;;6.67;3.00;;;9.90;99.90;;;;;;5093617;28;20175;-46
2023/10/09 03:18:40;;;;;;;4.77;2.97;;;9.90;99.90;;;;;;5093279;28;20470;-46
2023/10/09 03:21:06;;;;;;;5.37;3.10;;;9.90;99.90;;;;;;5093375;28;20799;-46
2023/10/09 03:23:32;;;;;;;7.10;2.93;;;9.90;99.90;;;;;;5092901;28;20430;-46
2023/10/09 03:25:58;;;;;;;5.67;2.90;;;10.00;99.90;;;;;;5092997;28;20531;-49
2023/10/09 03:28:24;;;;;;;4.50;3.23;;;9.90;99.90;;;;;;5096603;28;20517;-47
2023/10/09 03:30:50;;;;;;;3.83;2.57;;;9.90;99.90;;;;;;5097647;28;20437;-47
2023/10/09 03:33:17;;;;;;;4.50;3.10;;;9.90;99.90;;;;;;5097682;28;20299;-47
2023/10/09 03:35:42;;;;;;;3.80;3.17;;;9.90;99.90;;;;;;5097268;28;20413;-48
2023/10/09 03:38:12;;;;;;;5.50;2.83;;;9.80;99.90;;;;;;5097208;28;20415;-47
2023/10/09 03:40:42;;;;;;;6.57;3.10;;;9.80;99.90;;;;;;5097107;28;20189;-47
2023/10/09 03:43:10;;;;;;;10.20;4.07;;;9.80;99.90;;;;;;5097061;28;20416;-46
2023/10/09 03:45:38;;;;;;;7.07;3.20;;;9.90;99.90;;;;;;5096964;28;20423;-46
2023/10/09 03:48:11;;;;;;;3.77;3.37;;;9.80;99.90;;;;;;5096896;28;20442;-47
2023/10/09 03:50:37;;;;;;;3.50;2.83;;;9.80;99.90;;;;;;5097187;28;20411;-47
2023/10/09 03:53:07;;;;;;;7.13;2.70;;;9.80;99.90;;;;;;5096951;28;20454;-46
2023/10/09 03:55:37;;;;;;;8.37;3.20;;;9.90;99.90;;;;;;5096525;28;20555;-47
2023/10/09 03:58:04;;;;;;;9.43;2.80;;;9.90;99.90;;;;;;5096928;28;20408;-46
2023/10/09 04:00:30;;;;;;;4.73;2.57;;;9.80;99.90;;;;;;5096989;28;20449;-47
2023/10/09 04:02:57;;;;;;;4.70;2.73;;;9.80;99.90;;;;;;5096693;28;20439;-46
2023/10/09 04:05:28;;;;;;;2.83;2.57;;;9.80;99.90;;;;;;5096852;28;20418;-47
2023/10/09 04:07:58;;;;;;;4.80;2.67;;;9.80;99.90;;;;;;5096579;28;20411;-47
2023/10/09 04:10:42;;;;;;;7.90;3.10;;;9.80;99.90;;;;;;5096226;28;20457;-47
2023/10/09 04:13:11;;;;;;;9.40;3.07;;;9.80;99.90;;;;;;5096581;28;20494;-47
2023/10/09 04:15:37;;;;;;;3.33;2.77;;;9.70;99.90;;;;;;5096469;28;20980;-50
2023/10/09 04:18:05;;;;;;;5.23;3.00;;;9.70;99.90;;;;;;5096373;28;20417;-47
2023/10/09 04:23:04;;;;;;;6.73;2.53;;;9.70;99.90;;;;;;5096590;28;20460;-46
2023/10/09 04:25:40;;;;;;;4.60;2.80;;;9.70;99.90;;;;;;5096572;28;20938;-47
2023/10/09 04:30:46;;;;;;;6.03;2.73;;;9.70;99.90;;;;;;5096424;28;20413;-47
2023/10/09 04:33:28;;;;;;;6.10;2.77;;;9.70;99.90;;;;;;5096135;28;20787;-47
2023/10/09 04:36:22;;;;;;;3.30;2.90;;;9.70;99.90;;;;;;5096110;28;20415;-47
2023/10/09 04:41:51;;;;;;;4.90;3.07;;;9.70;99.90;;;;;;5096086;28;20459;-47
2023/10/09 04:44:24;;;;;;;6.80;3.30;;;9.70;99.90;;;;;;5096088;28;20418;-47
2023/10/09 05:02:54;;;;;;;7.00;3.03;;;9.70;99.90;;;;;;5095539;28;20448;-47
2023/10/09 05:16:04;;;;;;;4.53;3.03;;;9.70;99.90;;;;;;5095356;28;20411;-47
2023/10/09 05:18:36;;;;;;;3.73;2.83;;;9.60;99.90;;;;;;5095338;28;20422;-47
2023/10/09 05:24:10;;;;;;;7.50;3.67;;;9.70;99.90;;;;;;5094853;28;20417;-47
2023/10/09 05:26:50;;;;;;;11.13;3.37;;;9.70;99.90;;;;;;5094678;28;20835;-47
2023/10/09 05:29:19;;;;;;;4.27;2.70;;;9.70;99.90;;;;;;5094543;28;20414;-47
2023/10/09 05:34:23;;;;;;;11.47;3.53;;;9.80;99.90;;;;;;5094997;28;20464;-47
2023/10/09 05:36:49;;;;;;;3.70;2.93;;;9.80;99.90;;;;;;5094929;28;20915;-48
2023/10/09 05:39:22;;;;;;;5.27;3.30;;;9.80;99.90;;;;;;5094812;28;20471;-47
2023/10/09 05:41:52;;;;;;;5.67;3.43;;;9.80;99.90;;;;;;5095007;28;20418;-48
2023/10/09 05:49:46;;;;;;;10.60;4.60;;;9.90;99.90;;;;;;5094702;28;20949;-47
2023/10/09 06:03:23;;;;;;;14.67;3.80;;;9.80;99.90;;;;;;5094453;28;20444;-46
2023/10/09 06:08:26;;;;;;;9.77;3.70;;;9.80;99.90;;;;;;5094311;28;20173;-47
2023/10/09 06:11:05;;;;;;;7.03;3.90;;;9.80;99.90;;;;;;5094711;28;20474;-46
2023/10/09 06:13:37;;;;;;;4.47;3.20;;;9.80;99.90;;;;;;5094521;28;20406;-46
2023/10/09 06:19:11;;;;;;;7.10;3.80;;;9.80;99.90;;;;;;5078048;28;20785;-47
2023/10/09 06:29:35;;;;;;;7.80;3.60;;;9.70;99.90;;;;;;5095787;28;20415;-47
2023/10/09 06:35:15;;;;;;;6.30;3.53;;;9.60;99.90;;;;;;5095824;28;20883;-47
2023/10/09 06:43:36;;;;;;;6.60;4.00;;;9.70;99.90;;;;;;5091912;28;20423;-46
2023/10/09 06:49:28;;;;;;;5.57;3.60;;;9.70;99.90;;;;;;5070101;28;20482;-46
2023/10/09 06:51:47;;;;;;;9.00;4.33;;;9.70;99.90;;;;;;5093211;28;20470;-44
2023/10/09 06:54:15;;;;;;;7.77;4.10;;;9.80;99.90;;;;;;5091011;28;21218;-48
2023/10/09 06:59:24;;;;;;;5.97;3.73;;;9.70;99.90;;;;;;5093338;28;20431;-47
2023/10/09 07:07:07;;;;;;;7.37;4.67;;;9.70;99.90;;;;;;5097859;28;20418;-46
2023/10/09 07:12:27;;;;;;;6.20;4.70;;;9.70;99.90;;;;;;5093009;28;20465;-45
2023/10/09 07:15:21;;;;;;;9.60;5.40;;;9.70;99.90;;;;;;5088115;28;20524;-46
2023/10/09 07:17:46;;;;;;;8.57;5.10;;;9.80;99.90;;;;;;5087773;28;20439;-46
2023/10/09 07:23:13;;;;;;;7.87;5.40;;;9.90;99.90;;;;;;5086705;28;20228;-46
2023/10/09 07:25:54;;;;;;;6.80;5.37;;;9.90;99.90;;;;;;5084485;28;21035;-46
2023/10/09 07:28:36;;;;;;;8.27;6.17;;;9.90;99.90;;;;;;5088614;28;20432;-46
2023/10/09 07:31:03;;;;;;;7.73;6.40;;;10.00;99.90;;;;;;5087973;28;20443;-46
2023/10/09 07:33:51;;;;;;;9.83;6.70;;;10.00;99.90;;;;;;5087911;28;20474;-51
2023/10/09 07:36:29;;;;;;;8.60;5.90;;;10.00;99.90;;;;;;5086415;28;20472;-55
2023/10/09 07:38:55;;;;;;;8.40;5.93;;;10.10;99.90;;;;;;5085286;28;20870;-46
2023/10/09 07:43:47;;;;;;;5.90;4.57;;;10.20;99.90;;;;;;5088202;28;20438;-46
2023/10/09 07:46:30;;;;;;;4.63;4.23;;;10.20;99.90;;;;;;5086553;28;20660;-46
2023/10/09 07:48:56;;;;;;;6.43;4.30;;;10.30;99.90;;;;;;5086236;28;20434;-46
2023/10/09 07:51:23;;;;;;;5.53;4.67;;;10.30;99.90;;;;;;5088840;28;20439;-47
2023/10/09 07:54:06;;;;;;;8.53;5.43;;;10.30;99.90;;;;;;5087504;28;20447;-46
2023/10/09 07:56:38;;;;;;;4.70;4.30;;;10.30;99.90;;;;;;5096823;28;20423;-50
2023/10/09 07:59:10;;;;;;;5.70;4.57;;;10.30;99.90;;;;;;5096813;28;20443;-47
2023/10/09 08:01:52;;;;;;;5.80;4.50;;;10.30;99.90;;;;;;5096472;28;20399;-46
2023/10/09 08:07:09;;;;;;;5.53;4.13;;;10.50;99.90;;;;;;5096832;28;20444;-46
2023/10/09 08:09:48;;;;;;;5.17;4.17;;;10.60;99.90;;;;;;5096821;28;20547;-45
2023/10/09 08:12:59;;;;;;;3.93;3.53;;;10.70;99.90;;;;;;5096480;28;20450;-46
2023/10/09 08:18:13;;;;;;;9.60;3.73;;;10.80;99.90;;;;;;5096726;28;20396;-47
2023/10/09 08:24:35;;;;;;;5.20;4.50;;;10.80;99.90;;;;;;5096542;28;20457;-46
2023/10/09 08:26:12;;;;;;;5.20;4.60;;;10.80;99.90;;;;;;5088730;28;20917;-46
2023/10/09 08:28:39;;;;;;;6.30;4.60;;;10.80;99.90;;;;;;5096350;28;20514;-47
2023/10/09 08:32:18;;;;;;;5.37;4.40;;;10.80;99.90;;;;;;5095825;28;20917;-46
2023/10/09 08:34:09;;;;;;;6.17;4.40;;;10.80;99.90;;;;;;5086629;28;20453;-46
2023/10/09 08:36:38;;;;;;;7.50;4.67;;;10.70;99.90;;;;;;5095858;28;20417;-46
2023/10/09 08:39:25;;;;;;;6.10;5.50;;;10.80;99.90;;;;;;5095999;28;20415;-46
2023/10/09 08:41:57;;;;;;;6.37;5.77;;;10.70;99.90;;;;;;5096092;28;20405;-46
2023/10/09 08:44:25;;;;;;;6.30;5.10;;;10.70;99.90;;;;;;5095792;28;20407;-46
2023/10/09 08:46:51;;;;;;;6.50;5.20;;;10.80;99.90;;;;;;5096073;28;20405;-46
2023/10/09 08:49:17;;;;;;;7.83;5.37;;;10.80;99.90;;;;;;5095734;28;20468;-46
2023/10/09 08:51:46;;;;;;;6.00;5.43;;;10.80;99.90;;;;;;5095771;28;20469;-48
2023/10/09 08:54:14;;;;;;;7.93;5.60;;;10.80;99.90;;;;;;5095539;28;20453;-46
2023/10/09 08:56:49;;;;;;;6.93;6.23;;;10.80;99.90;;;;;;5095570;28;20506;-46
2023/10/09 08:59:20;;;;;;;6.47;5.87;;;10.80;99.90;;;;;;5095523;28;20409;-46
2023/10/09 09:01:51;;;;;;;47.77;7.70;;;10.80;99.90;;;;;;5095973;28;20551;-46
2023/10/09 09:04:41;;;;;;;6.63;5.93;;;10.90;99.90;;;;;;5095622;28;20417;-46
2023/10/09 09:07:31;;;;;;;6.73;5.73;;;10.90;99.90;;;;;;5089785;28;20432;-47
2023/10/09 09:10:17;;;;;;;6.40;5.67;;;10.90;99.90;;;;;;5095238;28;20788;-47
2023/10/09 09:12:43;;;;;;;8.10;5.77;;;10.90;99.90;;;;;;5095381;28;20477;-46
2023/10/09 09:15:20;;;;;;;5.43;4.77;;;10.90;99.90;;;;;;5095316;28;20451;-47
2023/10/09 09:17:49;;;;;;;4.90;4.47;;;11.00;99.90;;;;;;5095064;28;20769;-46
2023/10/09 09:20:23;;;;;;;6.30;5.20;;;11.00;99.90;;;;;;5095320;28;20433;-46
2023/10/09 09:22:56;;;;;;;5.03;4.53;;;11.00;99.90;;;;;;5094929;28;20525;-46
2023/10/09 09:25:24;;;;;;;6.17;4.63;;;11.00;99.90;;;;;;5094122;28;20474;-46
2023/10/09 09:27:52;;;;;;;6.20;4.63;;;11.10;99.90;;;;;;5094778;28;20431;-46
2023/10/09 09:30:31;;;;;;;5.53;4.97;;;11.10;99.90;;;;;;5094677;28;20417;-46
2023/10/09 09:33:15;;;;;;;6.33;5.40;;;11.20;99.90;;;;;;5094834;28;20464;-46
2023/10/09 09:36:02;;;;;;;6.60;6.00;;;11.20;99.90;;;;;;5094638;28;20413;-46
2023/10/09 09:38:29;;;;;;;6.93;5.40;;;11.30;99.90;;;;;;5086624;28;20452;-47
2023/10/09 09:40:57;;;;;;;5.60;5.10;;;11.40;99.90;;;;;;5085195;28;20968;-46
2023/10/09 09:43:23;;;;;;;8.67;5.53;;;11.50;99.90;;;;;;5085575;28;21032;-47
2023/10/09 09:45:52;;;;;;;6.60;5.10;;;11.50;99.90;;;;;;5084796;28;20453;-46
2023/10/09 09:48:18;;;;;;;6.60;5.90;;;11.50;99.90;;;;;;5084317;28;20961;-49
2023/10/09 09:50:45;;;;;;;6.43;5.20;;;11.60;99.90;;;;;;5086788;28;20837;-47
2023/10/09 09:53:17;;;;;;;6.60;5.90;;;11.60;99.90;;;;;;5085195;28;20495;-47
2023/10/09 09:55:52;;;;;;;7.80;6.60;;;11.60;99.90;;;;;;5085340;28;20535;-47
2023/10/09 09:58:23;;;;;;;9.03;6.73;;;11.60;99.90;;;;;;5086640;28;20433;-47
2023/10/09 10:00:55;;;;;;;9.83;8.40;;;11.70;99.90;;;;;;5083678;28;20488;-46
2023/10/09 10:03:32;;;;;;;11.47;9.10;;;11.70;99.90;;;;;;5084287;28;20449;-52
2023/10/09 10:06:05;;;;;;;16.33;10.10;;;11.70;99.90;;;;;;5083519;28;20803;-46
2023/10/09 10:08:32;;;;;;;13.30;9.97;;;11.70;99.90;;;;;;5085231;28;20500;-46
2023/10/09 10:11:04;;;;;;;12.00;10.80;;;11.70;99.90;;;;;;5085217;28;20457;-47
2023/10/09 10:13:42;;;;;;;13.50;10.90;;;11.80;99.90;;;;;;5081999;28;20475;-49
2023/10/09 10:16:12;;;;;;;12.43;10.47;;;11.80;99.90;;;;;;5085113;28;20434;-46
2023/10/09 10:18:54;;;;;;;13.33;9.83;;;11.80;99.90;;;;;;5083275;28;20450;-46
2023/10/09 10:24:05;;;;;;;13.37;10.63;;;11.80;99.90;;;;;;5078422;28;20904;-48
2023/10/09 10:26:33;;;;;;;12.80;11.40;;;11.80;99.90;;;;;;5084331;28;20442;-47
2023/10/09 10:29:22;;;;;;;14.33;10.70;;;11.80;99.90;;;;;;5084174;28;20465;-47
2023/10/09 10:32:08;;;;;;;12.83;11.10;;;11.90;99.90;;;;;;5083228;28;20478;-47
2023/10/09 10:34:55;;;;;;;11.27;10.07;;;11.90;99.90;;;;;;5079519;28;20445;-53
2023/10/09 10:37:28;;;;;;;10.93;9.57;;;12.00;99.90;;;;;;5083027;28;20495;-48
2023/10/09 10:39:59;;;;;;;10.13;8.50;;;12.10;99.90;;;;;;5078421;28;20500;-47
2023/10/09 10:42:34;;;;;;;11.47;9.37;;;12.10;99.90;;;;;;5080027;28;20431;-47
2023/10/09 10:45:03;;;;;;;11.60;8.40;;;12.10;99.90;;;;;;5082930;28;20443;-49
2023/10/09 10:47:34;;;;;;;10.70;9.37;;;12.20;99.90;;;;;;5082944;28;20965;-51
2023/10/09 10:50:34;;;;;;;9.50;8.30;;;12.20;99.90;;;;;;5084124;28;20459;-46
2023/10/09 10:52:57;;;;;;;7.33;6.57;;;12.30;99.90;;;;;;5083723;28;20478;-46
2023/10/09 10:58:02;;;;;;;6.40;5.80;;;12.30;99.90;;;;;;5081787;28;20435;-48
2023/10/09 11:03:54;;;;;;;7.10;5.60;;;12.40;99.90;;;;;;5083562;28;20453;-47
2023/10/09 11:06:36;;;;;;;6.90;4.87;;;12.40;99.90;;;;;;5085113;28;20434;-47
2023/10/09 11:09:20;;;;;;;4.80;4.40;;;12.50;99.90;;;;;;5085394;28;20450;-48
2023/10/09 11:11:50;;;;;;;3.70;3.33;;;12.50;99.90;;;;;;5084835;28;20481;-49
2023/10/09 11:14:23;;;;;;;3.70;3.30;;;12.50;99.90;;;;;;5084640;28;20970;-53
2023/10/09 11:16:49;;;;;;;4.30;3.90;;;12.40;99.90;;;;;;5085386;28;20575;-48
2023/10/09 11:19:28;;;;;;;3.43;3.13;;;12.40;99.90;;;;;;5083454;28;20472;-47
2023/10/09 11:24:34;;;;;;;5.23;4.00;;;12.40;99.90;;;;;;5082561;28;20599;-48
2023/10/09 11:27:18;;;;;;;4.00;3.60;;;12.50;99.90;;;;;;5086764;28;20434;-48
2023/10/09 11:32:23;;;;;;;3.50;3.07;;;12.60;99.90;;;;;;5092917;28;20464;-48
2023/10/09 11:34:53;;;;;;;4.13;3.73;;;12.60;99.90;;;;;;5093200;28;20426;-48
2023/10/09 11:39:52;;;;;;;4.90;4.40;;;12.50;99.90;;;;;;5093347;28;20490;-47
2023/10/09 11:42:35;;;;;;;4.10;3.70;;;12.50;99.90;;;;;;5093085;28;20494;-48
2023/10/09 11:45:24;;;;;;;4.10;3.70;;;12.40;99.90;;;;;;5093672;28;20184;-48
2023/10/09 11:47:57;;;;;;;3.93;3.53;;;12.40;99.90;;;;;;5094471;28;20491;-48
2023/10/09 11:50:43;;;;;;;4.63;3.47;;;12.40;99.90;;;;;;5096765;28;20410;-48
2023/10/09 11:53:19;;;;;;;3.43;3.17;;;12.40;99.90;;;;;;5096670;28;20486;-47
2023/10/09 11:55:49;;;;;;;3.70;3.40;;;12.40;99.90;;;;;;5097026;28;20419;-48
2023/10/09 11:58:22;;;;;;;3.50;3.23;;;12.40;99.90;;;;;;5097101;28;20468;-47
2023/10/09 12:00:56;;;;;;;5.10;3.70;;;12.50;99.90;;;;;;5097099;28;20410;-46
2023/10/09 12:03:31;;;;;;;3.87;3.57;;;12.50;99.90;;;;;;5096623;28;20774;-47
2023/10/09 12:05:57;;;;;;;4.83;4.10;;;12.60;99.90;;;;;;5096749;28;20879;-46
2023/10/09 12:08:26;;;;;;;5.70;4.20;;;12.70;99.90;;;;;;5096493;28;20418;-46
2023/10/09 12:10:54;;;;;;;4.60;4.20;;;12.80;99.90;;;;;;5096738;28;20449;-49
2023/10/09 12:13:24;;;;;;;4.67;4.27;;;12.80;99.90;;;;;;5096166;28;20511;-47
2023/10/09 12:15:53;;;;;;;4.43;4.03;;;12.80;99.90;;;;;;5096384;28;20418;-48
2023/10/09 12:18:21;;;;;;;4.97;4.57;;;12.90;99.90;;;;;;5096391;28;20767;-49
2023/10/09 12:20:50;;;;;;;4.90;4.50;;;12.90;99.90;;;;;;5096502;28;20453;-47
2023/10/09 12:23:18;;;;;;;6.07;5.13;;;12.90;99.90;;;;;;5096573;28;20431;-47
2023/10/09 12:25:47;;;;;;;6.17;5.57;;;13.00;99.90;;;;;;5095754;28;20535;-47
2023/10/09 12:28:12;;;;;;;6.87;5.70;;;13.00;99.90;;;;;;5096066;28;20414;-47
2023/10/09 12:30:41;;;;;;;6.70;6.00;;;13.10;99.90;;;;;;5095925;28;20726;-47
2023/10/09 12:33:08;;;;;;;6.07;5.57;;;13.10;99.90;;;;;;5096111;28;20302;-48
2023/10/09 12:35:38;;;;;;;6.60;5.60;;;13.20;99.90;;;;;;5096108;28;20423;-47
2023/10/09 12:38:09;;;;;;;6.50;5.60;;;13.20;99.90;;;;;;5096151;28;20446;-47
2023/10/09 12:40:40;;;;;;;6.60;5.90;;;13.10;99.90;;;;;;5096148;28;20406;-48
2023/10/09 12:43:15;;;;;;;6.83;6.10;;;13.00;99.90;;;;;;5096092;28;20407;-46
2023/10/09 12:45:41;;;;;;;6.63;6.03;;;13.00;99.90;;;;;;5095565;28;20969;-49
2023/10/09 12:48:09;;;;;;;6.70;6.10;;;13.00;99.90;;;;;;5095777;28;20449;-48
2023/10/09 12:50:41;;;;;;;7.03;5.50;;;13.00;99.90;;;;;;5095873;28;20407;-48
2023/10/09 12:53:08;;;;;;;8.63;7.37;;;13.00;99.90;;;;;;5095594;28;20458;-48
2023/10/09 12:55:43;;;;;;;9.60;7.60;;;12.90;99.90;;;;;;5095658;28;20535;-47
2023/10/09 12:58:14;;;;;;;8.23;7.43;;;12.90;99.90;;;;;;5095641;28;20418;-47
2023/10/09 13:00:49;;;;;;;10.23;8.33;;;12.90;99.90;;;;;;5094468;28;20894;-47
2023/10/09 13:03:19;;;;;;;9.60;8.60;;;13.00;99.90;;;;;;5096057;28;20395;-47
2023/10/09 13:05:53;;;;;;;10.90;9.37;;;13.00;99.90;;;;;;5095782;28;20548;-47
2023/10/09 13:08:23;;;;;;;10.83;9.73;;;13.10;99.90;;;;;;5095376;28;20407;-47
2023/10/09 13:11:01;;;;;;;12.70;8.90;;;13.20;99.90;;;;;;5095280;28;20430;-48
2023/10/09 13:13:39;;;;;;;9.63;8.37;;;13.20;99.90;;;;;;5094726;28;20969;-48
2023/10/09 13:16:20;;;;;;;11.30;9.80;;;13.30;99.90;;;;;;5095365;28;20500;-47
2023/10/09 13:18:52;;;;;;;10.30;9.00;;;13.40;99.90;;;;;;5095049;28;20452;-48
2023/10/09 13:21:18;;;;;;;11.27;8.50;;;13.50;99.90;;;;;;5095181;28;20865;-47
2023/10/09 13:23:46;;;;;;;8.77;7.80;;;13.50;99.90;;;;;;5094714;28;20463;-47
2023/10/09 13:26:21;;;;;;;11.77;9.63;;;13.50;99.90;;;;;;5095062;28;20828;-48
2023/10/09 13:28:48;;;;;;;11.87;9.00;;;13.60;99.90;;;;;;5095017;28;20407;-48
2023/10/09 13:31:15;;;;;;;8.77;7.87;;;13.70;99.90;;;;;;5095219;28;20414;-47
2023/10/09 13:33:42;;;;;;;12.03;9.27;;;13.80;99.90;;;;;;5094700;28;20478;-50
2023/10/09 13:36:17;;;;;;;9.60;8.17;;;13.80;99.90;;;;;;5094949;28;20412;-48
2023/10/09 13:38:43;;;;;;;10.63;8.00;;;13.90;99.90;;;;;;5095015;28;20494;-47
2023/10/09 13:41:12;;;;;;;8.70;7.73;;;13.90;99.90;;;;;;5094949;28;20431;-46
2023/10/09 13:43:40;;;;;;;8.30;7.40;;;13.90;99.90;;;;;;5095263;28;20523;-47
2023/10/09 13:46:08;;;;;;;12.03;8.77;;;13.90;99.90;;;;;;5095266;28;20435;-47
2023/10/09 13:48:38;;;;;;;9.00;8.10;;;13.90;99.90;;;;;;5094846;28;20428;-47
2023/10/09 13:51:08;;;;;;;10.10;8.90;;;13.90;99.90;;;;;;5094705;28;20415;-52
2023/10/09 13:53:44;;;;;;;11.10;9.87;;;13.90;99.90;;;;;;5094275;28;20951;-47
2023/10/09 13:56:14;;;;;;;10.70;9.60;;;13.80;99.90;;;;;;5094640;28;20412;-45
2023/10/09 13:58:42;;;;;;;11.47;10.27;;;13.90;99.90;;;;;;5094914;28;20499;-47
2023/10/09 14:01:08;;;;;;;12.87;10.80;;;13.90;99.90;;;;;;5094355;28;20933;-48
2023/10/09 14:03:34;;;;;;;11.33;10.17;;;14.00;99.90;;;;;;5094437;28;20506;-47
2023/10/09 14:06:10;;;;;;;12.20;10.23;;;14.10;99.90;;;;;;5094521;28;20417;-49
2023/10/09 14:08:41;;;;;;;15.70;10.13;;;14.20;99.90;;;;;;5094778;28;20209;-49
2023/10/09 14:11:13;;;;;;;11.67;10.47;;;14.30;99.90;;;;;;5094437;28;20884;-47
2023/10/09 14:13:40;;;;;;;11.90;10.73;;;14.30;99.90;;;;;;5094465;28;20447;-48
2023/10/09 14:16:06;;;;;;;10.20;9.20;;;14.30;99.90;;;;;;5094115;28;20934;-47
2023/10/09 14:18:32;;;;;;;13.30;11.23;;;14.50;99.90;;;;;;5093665;28;20463;-48
2023/10/09 14:21:04;;;;;;;11.83;10.63;;;14.50;99.90;;;;;;5094260;28;20460;-48
2023/10/09 14:23:34;;;;;;;11.00;9.90;;;14.60;99.90;;;;;;5093953;28;20922;-48
2023/10/09 14:26:01;;;;;;;12.47;9.80;;;14.60;99.90;;;;;;5093481;28;20468;-48
2023/10/09 14:28:28;;;;;;;11.93;10.30;;;14.60;99.90;;;;;;5094084;28;20430;-48
2023/10/09 14:30:59;;;;;;;16.23;10.47;;;14.60;99.90;;;;;;5094026;28;20511;-50
2023/10/09 14:33:27;;;;;;;11.10;9.77;;;14.60;99.90;;;;;;5093543;28;20482;-48
2023/10/09 14:35:54;;;;;;;16.63;10.20;;;14.50;99.90;;;;;;5094180;28;20785;-48
2023/10/09 14:38:26;;;;;;;10.90;9.70;;;14.50;99.90;;;;;;5093833;28;20474;-48
2023/10/09 14:40:57;;;;;;;17.00;10.80;;;14.40;99.90;;;;;;5093851;28;20407;-48
2023/10/09 14:43:27;;;;;;;12.07;10.43;;;14.40;99.90;;;;;;5093936;28;20408;-47
2023/10/09 14:45:54;;;;;;;13.87;10.87;;;14.40;99.90;;;;;;5093983;28;20465;-47
2023/10/09 14:48:26;;;;;;;16.63;11.90;;;14.40;99.90;;;;;;5093846;28;20404;-51
2023/10/09 14:51:00;;;;;;;10.97;9.80;;;14.40;99.90;;;;;;5093687;28;20494;-48
2023/10/09 14:53:26;;;;;;;14.97;10.77;;;14.40;99.90;;;;;;5093710;28;20491;-49
2023/10/09 14:56:01;;;;;;;16.17;11.30;;;14.40;99.90;;;;;;5093839;28;20458;-47
2023/10/09 14:58:30;;;;;;;14.00;11.57;;;14.50;99.90;;;;;;5093461;28;20267;-48
2023/10/09 15:00:56;;;;;;;13.40;10.97;;;14.50;99.90;;;;;;5093605;28;20429;-47
2023/10/09 15:03:22;;;;;;;13.57;11.33;;;14.50;99.90;;;;;;5093455;28;20856;-47
2023/10/09 15:05:48;;;;;;;13.17;10.57;;;14.40;99.90;;;;;;5093473;28;20187;-47
2023/10/09 15:08:14;;;;;;;14.73;10.50;;;14.40;99.90;;;;;;5093431;28;20439;-48
2023/10/09 15:10:55;;;;;;;19.23;11.20;;;14.40;99.90;;;;;;5093310;28;20409;-47
2023/10/09 15:13:27;;;;;;;13.53;10.83;;;14.40;99.90;;;;;;5093409;28;20494;-47
2023/10/09 15:15:54;;;;;;;15.77;11.70;;;14.40;99.90;;;;;;5093884;28;20471;-46
2023/10/09 15:18:21;;;;;;;18.30;11.97;;;14.30;99.90;;;;;;5093413;28;20772;-48
2023/10/09 15:20:47;;;;;;;18.80;11.70;;;14.30;99.90;;;;;;5092830;28;20451;-47
2023/10/09 15:23:13;;;;;;;14.97;11.57;;;14.30;99.90;;;;;;5094782;28;20403;-48
2023/10/09 15:25:39;;;;;;;17.40;12.20;;;14.30;99.90;;;;;;5097405;28;20972;-47
2023/10/09 15:28:09;;;;;;;15.67;12.40;;;14.30;99.90;;;;;;5097463;28;20410;-48
2023/10/09 15:30:37;;;;;;;13.23;11.83;;;14.30;99.90;;;;;;5097053;28;20175;-48
2023/10/09 15:33:05;;;;;;;15.70;12.83;;;14.30;99.90;;;;;;5097185;28;20484;-53
2023/10/09 15:35:33;;;;;;;15.37;12.07;;;14.30;99.90;;;;;;5097116;28;20923;-48
2023/10/09 15:38:03;;;;;;;17.60;12.37;;;14.30;99.90;;;;;;5097359;28;20437;-48
2023/10/09 15:40:35;;;;;;;17.63;12.20;;;14.30;99.90;;;;;;5097353;28;20414;-47
2023/10/09 15:43:01;;;;;;;13.80;11.87;;;14.30;99.90;;;;;;5097120;28;20408;-48